KZ-0026 weather

CLOSED Novotroitskoye West Airfield
Novotroitskoye, Jambyl Region, Kazakhstan

Public forecast

Using degrees Celsius for public forecast. Weather courtesy of forecast.io.

Closest aviation weather report (METAR) to Novotroitskoye West Airfield

Closest report is Manas International Airport, 56.9 nm (105.4 km) SE. Retrieved 2020/02/28 21:00 UTC (33 minutes ago):

UCFM 282100Z 23002MPS 4200 BR NSC M02/M03 Q1020 R08/0///95 NOSIG

Closest aviation forecast (TAF) to Novotroitskoye West Airfield

Closest forecast is Manas International Airport, 56.9 nm (105.4 km) SE. Retrieved 2020/02/28 18:00 UTC (4 hours ago):

TAF UCFM 281646Z 2818/2918 12003G08MPS 2000 BR SCT030 TEMPO 2818/2820 06003G08MPS 1000 BR FU TEMPO 2820/2902 0600 FZFG FU FEW005 BECMG 2904/2906 9999 NSW